createdAt,value
2023-01-05T00:00:21.398Z,75.00
2023-01-05T00:05:21.278Z,75.00
2023-01-05T00:10:21.216Z,75.00
2023-01-05T00:15:21.126Z,74.00
2023-01-05T00:20:21.055Z,75.00
2023-01-05T00:25:21.077Z,76.00
2023-01-05T00:30:20.963Z,77.00
2023-01-05T00:35:20.871Z,77.00
2023-01-05T00:40:20.782Z,78.00
2023-01-05T00:45:20.767Z,78.00
2023-01-05T00:50:20.727Z,76.00
2023-01-05T00:55:20.713Z,78.00
2023-01-05T01:00:20.572Z,76.00
2023-01-05T01:05:20.486Z,76.00
2023-01-05T01:10:20.415Z,75.00
2023-01-05T01:15:20.359Z,74.00
2023-01-05T01:20:20.336Z,74.00
2023-01-05T01:25:20.231Z,74.00
2023-01-05T01:30:20.212Z,75.00
2023-01-05T01:35:20.091Z,73.00
2023-01-05T01:40:20.039Z,72.00
2023-01-05T01:45:20.015Z,71.00
2023-01-05T01:50:19.968Z,72.00
2023-01-05T01:55:19.864Z,75.00
2023-01-05T02:00:19.838Z,75.00
2023-01-05T02:05:19.710Z,74.00
2023-01-05T02:10:19.765Z,74.00
2023-01-05T02:15:19.591Z,74.00
2023-01-05T02:20:19.540Z,73.00
2023-01-05T02:25:19.488Z,75.00
2023-01-05T02:30:19.394Z,77.00
2023-01-05T02:35:19.335Z,77.00
2023-01-05T02:40:19.299Z,76.00
2023-01-05T02:45:19.239Z,76.00
2023-01-05T02:50:19.181Z,75.00
2023-01-05T02:55:19.086Z,75.00
2023-01-05T03:00:19.033Z,76.00
2023-01-05T03:05:18.959Z,76.00
2023-01-05T03:10:18.917Z,76.00
2023-01-05T03:15:18.901Z,74.00
2023-01-05T03:20:18.785Z,74.00
2023-01-05T03:25:18.726Z,74.00
2023-01-05T03:30:18.802Z,74.00
2023-01-05T03:35:18.592Z,74.00
2023-01-05T03:40:18.528Z,74.00
2023-01-05T03:45:18.567Z,75.00
2023-01-05T03:50:18.433Z,74.00
2023-01-05T03:55:18.338Z,73.00
2023-01-05T04:00:18.319Z,72.00
2023-01-05T04:05:18.274Z,75.00
2023-01-05T04:10:18.151Z,74.00
2023-01-05T04:15:18.074Z,74.00
2023-01-05T04:20:18.091Z,74.00
2023-01-05T04:25:17.937Z,74.00
2023-01-05T04:30:17.902Z,75.00
2023-01-05T04:35:17.853Z,74.00
2023-01-05T04:40:17.809Z,74.00
2023-01-05T04:45:17.687Z,75.00
2023-01-05T04:50:17.700Z,76.00
2023-01-05T04:55:17.571Z,76.00
2023-01-05T05:00:17.566Z,77.00
2023-01-05T05:05:17.458Z,76.00
2023-01-05T05:10:17.388Z,78.00
2023-01-05T05:15:17.367Z,78.00
2023-01-05T05:20:17.263Z,78.00
2023-01-05T05:25:17.199Z,79.00
2023-01-05T05:30:17.132Z,78.00
2023-01-05T05:35:17.060Z,80.00
2023-01-05T05:40:17.027Z,80.00
2023-01-05T05:45:16.982Z,79.00
2023-01-05T05:50:16.868Z,79.00
2023-01-05T05:55:16.814Z,80.00
2023-01-05T06:00:16.741Z,78.00
2023-01-05T06:05:16.689Z,78.00
2023-01-05T06:10:16.612Z,79.00
2023-01-05T06:15:16.585Z,79.00
2023-01-05T06:20:16.532Z,77.00
2023-01-05T06:25:16.759Z,77.00
2023-01-05T06:30:16.459Z,76.00
2023-01-05T06:35:16.290Z,76.00
2023-01-05T06:40:16.249Z,76.00
2023-01-05T06:45:16.186Z,78.00
2023-01-05T06:50:16.299Z,78.00
2023-01-05T06:55:16.060Z,80.00
2023-01-05T07:00:16.022Z,79.00
2023-01-05T07:05:15.935Z,79.00
2023-01-05T07:10:15.852Z,80.00
2023-01-05T07:15:15.828Z,80.00
2023-01-05T07:20:15.750Z,82.00
2023-01-05T07:25:15.672Z,81.00
2023-01-05T07:30:15.661Z,81.00
2023-01-05T07:35:15.692Z,78.00
2023-01-05T07:40:15.573Z,77.00
2023-01-05T07:45:15.530Z,75.00
2023-01-05T07:50:15.372Z,76.00
2023-01-05T07:55:15.461Z,75.00
2023-01-05T08:00:15.387Z,76.00
2023-01-05T08:05:15.227Z,75.00
2023-01-05T08:10:15.220Z,74.00
2023-01-05T08:15:15.054Z,73.00
2023-01-05T08:20:15.010Z,73.00
2023-01-05T08:25:14.911Z,74.00
2023-01-05T08:30:14.887Z,74.00
2023-01-05T08:35:14.840Z,74.00
2023-01-05T08:40:14.729Z,72.00
2023-01-05T08:45:14.780Z,72.00
2023-01-05T08:50:14.668Z,70.00
2023-01-05T08:55:14.528Z,70.00
2023-01-05T09:00:14.471Z,69.00
2023-01-05T09:05:14.396Z,68.00
2023-01-05T09:10:14.358Z,71.00
2023-01-05T09:15:14.285Z,70.00
2023-01-05T09:20:14.212Z,70.00
2023-01-05T09:25:14.142Z,69.00
2023-01-05T09:30:14.575Z,69.00
2023-01-05T09:35:14.110Z,69.00
2023-01-05T09:40:14.013Z,69.00
2023-01-05T09:45:14.016Z,69.00
2023-01-05T09:50:13.934Z,69.00
2023-01-05T09:55:13.979Z,69.00
2023-01-05T10:00:13.868Z,69.00
2023-01-05T10:05:13.859Z,69.00
2023-01-05T10:10:13.652Z,70.00
2023-01-05T10:15:13.704Z,70.00
2023-01-05T10:20:13.493Z,69.00
2023-01-05T10:25:13.443Z,71.00
2023-01-05T10:30:13.342Z,72.00
2023-01-05T10:35:34.067Z,73.00
2023-01-05T10:40:14.282Z,73.00
2023-01-05T10:45:13.152Z,72.00
2023-01-05T10:50:13.184Z,71.00
2023-01-05T10:55:13.019Z,71.00
2023-01-05T11:00:13.068Z,70.00
2023-01-05T11:05:13.094Z,71.00
2023-01-05T11:10:13.035Z,74.00
2023-01-05T11:15:12.971Z,72.00
2023-01-05T11:20:12.750Z,71.00
2023-01-05T11:25:12.639Z,70.00
2023-01-05T11:30:12.624Z,72.00
2023-01-05T11:35:12.655Z,73.00
2023-01-05T11:40:12.639Z,72.00
2023-01-05T11:45:12.498Z,74.00
2023-01-05T11:50:12.353Z,74.00
2023-01-05T11:55:12.378Z,72.00
2023-01-05T12:00:12.446Z,71.00
2023-01-05T12:05:12.137Z,71.00
2023-01-05T12:10:12.188Z,70.00
2023-01-05T12:15:12.006Z,70.00
2023-01-05T12:20:12.003Z,68.00
2023-01-05T12:25:11.911Z,69.00
2023-01-05T12:35:12.795Z,69.00
2023-01-05T12:40:11.686Z,68.00
2023-01-05T12:45:11.621Z,68.00
2023-01-05T12:50:11.549Z,67.00
2023-01-05T12:55:11.486Z,68.00
2023-01-05T13:00:11.432Z,69.00
2023-01-05T13:05:11.400Z,69.00
2023-01-05T13:10:11.407Z,70.00
2023-01-05T13:15:11.259Z,69.00
2023-01-05T13:20:11.424Z,68.00
2023-01-05T13:25:11.120Z,69.00
2023-01-05T13:30:11.040Z,70.00
2023-01-05T13:35:10.999Z,70.00
2023-01-05T13:40:11.121Z,72.00
2023-01-05T13:45:10.891Z,72.00
2023-01-05T13:50:10.812Z,72.00
2023-01-05T13:55:17.701Z,72.00
2023-01-05T14:00:12.545Z,73.00
2023-01-05T14:05:10.593Z,72.00
2023-01-05T14:10:10.532Z,72.00
2023-01-05T14:15:10.471Z,71.00
2023-01-05T14:20:10.437Z,71.00
2023-01-05T14:25:10.357Z,71.00
2023-01-05T14:30:10.279Z,71.00
2023-01-05T14:35:10.213Z,70.00
2023-01-05T14:45:10.089Z,72.00
2023-01-05T14:50:10.056Z,73.00
2023-01-05T14:55:21.825Z,75.00
2023-01-05T15:00:10.884Z,75.00
2023-01-05T15:05:10.551Z,75.00
2023-01-05T15:10:09.775Z,74.00
2023-01-05T15:15:09.736Z,73.00
2023-01-05T15:20:09.864Z,73.00
2023-01-05T15:25:09.579Z,74.00
2023-01-05T15:30:09.528Z,75.00
2023-01-05T15:35:09.459Z,74.00
2023-01-05T15:40:09.487Z,74.00
2023-01-05T15:45:09.319Z,74.00
2023-01-05T15:50:09.310Z,73.00
2023-01-05T15:55:09.255Z,74.00
2023-01-05T16:00:09.180Z,74.00
2023-01-05T16:05:09.251Z,74.00
2023-01-05T16:10:09.023Z,73.00
2023-01-05T16:15:09.045Z,72.00
2023-01-05T16:20:08.927Z,71.00
2023-01-05T16:25:08.842Z,71.00
2023-01-05T16:30:08.750Z,71.00
2023-01-05T16:35:08.681Z,71.00
2023-01-05T16:40:08.664Z,73.00
2023-01-05T16:45:08.585Z,73.00
2023-01-05T16:50:08.500Z,74.00
2023-01-05T16:55:10.640Z,75.00
2023-01-05T17:00:08.381Z,75.00
2023-01-05T17:05:08.339Z,75.00
2023-01-05T17:10:08.255Z,76.00
2023-01-05T17:15:08.290Z,74.00
2023-01-05T17:20:08.123Z,75.00
2023-01-05T17:25:09.959Z,74.00
2023-01-05T17:30:07.998Z,73.00
2023-01-05T17:35:07.940Z,74.00
2023-01-05T17:40:07.894Z,72.00
2023-01-05T17:45:07.800Z,73.00
2023-01-05T17:50:07.735Z,74.00
2023-01-05T17:55:07.678Z,73.00
2023-01-05T18:00:07.609Z,73.00
2023-01-05T18:05:07.551Z,74.00
2023-01-05T18:15:07.430Z,74.00
2023-01-05T18:20:07.356Z,73.00
2023-01-05T18:30:07.232Z,75.00
2023-01-05T18:35:09.879Z,74.00
2023-01-05T18:40:07.169Z,75.00
2023-01-05T18:45:18.775Z,78.00
2023-01-05T18:50:07.992Z,78.00
2023-01-05T18:55:06.914Z,78.00
2023-01-05T19:00:06.856Z,80.00
2023-01-05T19:05:06.815Z,79.00
2023-01-05T19:10:06.752Z,79.00
2023-01-05T19:15:06.666Z,77.00
2023-01-05T19:20:06.642Z,76.00
2023-01-05T19:25:06.533Z,75.00
2023-01-05T19:30:06.486Z,75.00
2023-01-05T19:35:06.400Z,73.00
2023-01-05T19:40:06.421Z,70.00
2023-01-05T19:45:06.274Z,70.00
2023-01-05T19:50:06.216Z,68.00
2023-01-05T19:55:06.193Z,68.00
2023-01-05T20:00:06.101Z,68.00
2023-01-05T20:05:06.029Z,68.00
2023-01-05T20:10:05.985Z,69.00
2023-01-05T20:15:05.916Z,71.00
2023-01-05T20:20:05.839Z,70.00
2023-01-05T20:25:05.797Z,71.00
2023-01-05T20:30:05.725Z,72.00
2023-01-05T20:35:05.648Z,73.00
2023-01-05T20:40:05.659Z,73.00
2023-01-05T20:45:05.518Z,73.00
2023-01-05T20:50:07.510Z,75.00
2023-01-05T20:55:05.385Z,75.00
2023-01-05T21:00:05.350Z,74.00
2023-01-05T21:05:05.272Z,73.00
2023-01-05T21:10:05.209Z,73.00
2023-01-05T21:15:05.149Z,73.00
2023-01-05T21:20:05.068Z,74.00
2023-01-05T21:25:05.006Z,73.00
2023-01-05T21:30:04.945Z,73.00
2023-01-05T21:35:04.884Z,72.00
2023-01-05T21:40:04.863Z,73.00
2023-01-05T21:45:04.755Z,73.00
2023-01-05T21:50:04.695Z,73.00
2023-01-05T21:55:04.633Z,75.00
2023-01-05T22:00:04.586Z,77.00
2023-01-05T22:05:04.501Z,76.00
2023-01-05T22:10:04.441Z,75.00
2023-01-05T22:15:04.374Z,74.00
2023-01-05T22:20:04.315Z,73.00
2023-01-05T22:25:04.257Z,74.00
2023-01-05T22:30:04.207Z,73.00
2023-01-05T22:35:04.127Z,73.00
2023-01-05T22:40:04.118Z,73.00
2023-01-05T22:45:03.995Z,72.00
2023-01-05T22:50:03.945Z,70.00
2023-01-05T22:55:03.879Z,71.00
2023-01-05T23:00:03.801Z,71.00
2023-01-05T23:05:04.216Z,74.00
2023-01-05T23:10:03.661Z,74.00
2023-01-05T23:15:03.639Z,75.00
2023-01-05T23:20:03.526Z,77.00
2023-01-05T23:25:03.474Z,76.00
2023-01-05T23:30:03.390Z,76.00
2023-01-05T23:35:03.347Z,76.00
2023-01-05T23:40:03.325Z,77.00
2023-01-05T23:45:03.201Z,76.00
2023-01-05T23:50:03.135Z,75.00
2023-01-05T23:55:03.100Z,77.00
